Terminal Aerodrome Forecast
Issued by NWS

Home | Current Version | Previous Version | Text Only | Print | Product List | Glossary On
Versions: 1 2 3 4 5 6 7 8 9 10 11 12 13
000
FTUS42 KTBW 250520
TAFPGD
TAF
KPGD 250520Z 2506/2606 07007KT P6SM SKC
     FM251400 10010G15KT P6SM FEW035 FEW250
     FM251800 11008KT P6SM SCT045
     FM251900 11007KT P6SM BKN045=

USA.gov is the U.S. government's official web portal to all federal, state and local government web resources and services.